sensor_id;sensor_type;location;lat;lon;timestamp;temperature;humidity
20712;DHT22;10517;50.742;4.224;2023-01-09T00:01:45;7.00;99.90
20712;DHT22;10517;50.742;4.224;2023-01-09T00:04:12;6.90;99.90
20712;DHT22;10517;50.742;4.224;2023-01-09T00:06:38;7.00;99.90
20712;DHT22;10517;50.742;4.224;2023-01-09T00:09:08;7.00;99.90
20712;DHT22;10517;50.742;4.224;2023-01-09T00:11:34;7.00;99.90
20712;DHT22;10517;50.742;4.224;2023-01-09T00:13:59;7.00;99.90
20712;DHT22;10517;50.742;4.224;2023-01-09T00:16:25;7.00;99.90
20712;DHT22;10517;50.742;4.224;2023-01-09T00:18:51;6.90;99.90
20712;DHT22;10517;50.742;4.224;2023-01-09T00:21:18;6.90;99.90
20712;DHT22;10517;50.742;4.224;2023-01-09T00:23:44;6.90;99.90
20712;DHT22;10517;50.742;4.224;2023-01-09T00:26:18;6.90;99.90
20712;DHT22;10517;50.742;4.224;2023-01-09T00:28:45;6.80;99.90
20712;DHT22;10517;50.742;4.224;2023-01-09T00:31:11;6.90;99.90
20712;DHT22;10517;50.742;4.224;2023-01-09T00:33:59;6.90;99.90
20712;DHT22;10517;50.742;4.224;2023-01-09T00:36:25;6.80;99.90
20712;DHT22;10517;50.742;4.224;2023-01-09T00:38:51;6.80;99.90
20712;DHT22;10517;50.742;4.224;2023-01-09T00:41:30;6.80;99.90
20712;DHT22;10517;50.742;4.224;2023-01-09T00:44:02;6.80;99.90
20712;DHT22;10517;50.742;4.224;2023-01-09T00:46:35;6.80;99.90
20712;DHT22;10517;50.742;4.224;2023-01-09T00:49:03;6.70;99.90
20712;DHT22;10517;50.742;4.224;2023-01-09T00:51:29;6.70;99.90
20712;DHT22;10517;50.742;4.224;2023-01-09T00:53:55;6.60;99.90
20712;DHT22;10517;50.742;4.224;2023-01-09T00:56:21;6.60;99.90
20712;DHT22;10517;50.742;4.224;2023-01-09T00:58:48;6.70;99.90
20712;DHT22;10517;50.742;4.224;2023-01-09T01:01:14;6.60;99.90
20712;DHT22;10517;50.742;4.224;2023-01-09T01:03:40;6.60;99.90
20712;DHT22;10517;50.742;4.224;2023-01-09T01:06:05;6.60;99.90
20712;DHT22;10517;50.742;4.224;2023-01-09T01:08:49;6.60;99.90
20712;DHT22;10517;50.742;4.224;2023-01-09T01:11:15;6.60;99.90
20712;DHT22;10517;50.742;4.224;2023-01-09T01:13:41;6.60;99.90
20712;DHT22;10517;50.742;4.224;2023-01-09T01:16:09;6.60;99.90
20712;DHT22;10517;50.742;4.224;2023-01-09T01:18:35;6.60;99.90
20712;DHT22;10517;50.742;4.224;2023-01-09T01:21:05;6.60;99.90
20712;DHT22;10517;50.742;4.224;2023-01-09T01:23:30;6.60;99.90
20712;DHT22;10517;50.742;4.224;2023-01-09T01:25:56;6.60;99.90
20712;DHT22;10517;50.742;4.224;2023-01-09T01:28:21;6.60;99.90
20712;DHT22;10517;50.742;4.224;2023-01-09T01:30:47;6.50;99.90
20712;DHT22;10517;50.742;4.224;2023-01-09T01:33:13;6.50;99.90
20712;DHT22;10517;50.742;4.224;2023-01-09T01:35:38;6.40;99.90
20712;DHT22;10517;50.742;4.224;2023-01-09T01:38:04;6.60;99.90
20712;DHT22;10517;50.742;4.224;2023-01-09T01:40:29;6.50;99.90
20712;DHT22;10517;50.742;4.224;2023-01-09T01:42:56;6.50;99.90
20712;DHT22;10517;50.742;4.224;2023-01-09T01:45:27;6.50;99.90
20712;DHT22;10517;50.742;4.224;2023-01-09T01:48:27;6.40;99.90
20712;DHT22;10517;50.742;4.224;2023-01-09T01:51:01;6.40;99.90
20712;DHT22;10517;50.742;4.224;2023-01-09T01:53:39;6.50;99.90
20712;DHT22;10517;50.742;4.224;2023-01-09T01:58:49;6.60;99.90
20712;DHT22;10517;50.742;4.224;2023-01-09T02:01:17;6.70;99.90
20712;DHT22;10517;50.742;4.224;2023-01-09T02:03:45;6.80;99.90
20712;DHT22;10517;50.742;4.224;2023-01-09T02:06:11;6.80;99.90
20712;DHT22;10517;50.742;4.224;2023-01-09T02:08:38;6.90;99.90
20712;DHT22;10517;50.742;4.224;2023-01-09T02:11:04;7.00;99.90
20712;DHT22;10517;50.742;4.224;2023-01-09T02:13:31;7.00;99.90
20712;DHT22;10517;50.742;4.224;2023-01-09T02:18:26;7.10;99.90
20712;DHT22;10517;50.742;4.224;2023-01-09T02:26:53;7.20;99.90
20712;DHT22;10517;50.742;4.224;2023-01-09T02:37:36;7.20;99.90
20712;DHT22;10517;50.742;4.224;2023-01-09T02:42:35;7.20;99.90
20712;DHT22;10517;50.742;4.224;2023-01-09T02:45:02;7.10;99.90
20712;DHT22;10517;50.742;4.224;2023-01-09T02:50:01;7.20;99.90
20712;DHT22;10517;50.742;4.224;2023-01-09T02:57:56;7.20;99.90
20712;DHT22;10517;50.742;4.224;2023-01-09T03:03:37;7.30;99.90
20712;DHT22;10517;50.742;4.224;2023-01-09T03:06:13;7.30;99.90
20712;DHT22;10517;50.742;4.224;2023-01-09T03:08:44;7.30;99.90
20712;DHT22;10517;50.742;4.224;2023-01-09T03:11:11;7.20;99.90
20712;DHT22;10517;50.742;4.224;2023-01-09T03:13:42;7.10;99.90
20712;DHT22;10517;50.742;4.224;2023-01-09T03:16:13;7.10;99.90
20712;DHT22;10517;50.742;4.224;2023-01-09T03:18:41;7.10;99.90
20712;DHT22;10517;50.742;4.224;2023-01-09T03:21:07;7.20;99.90
20712;DHT22;10517;50.742;4.224;2023-01-09T03:23:55;7.20;99.90
20712;DHT22;10517;50.742;4.224;2023-01-09T03:26:21;7.20;99.90
20712;DHT22;10517;50.742;4.224;2023-01-09T03:28:47;7.20;99.90
20712;DHT22;10517;50.742;4.224;2023-01-09T03:31:13;7.30;99.90
20712;DHT22;10517;50.742;4.224;2023-01-09T03:33:40;7.30;99.90
20712;DHT22;10517;50.742;4.224;2023-01-09T03:36:06;7.30;99.90
20712;DHT22;10517;50.742;4.224;2023-01-09T03:38:32;7.40;99.90
20712;DHT22;10517;50.742;4.224;2023-01-09T03:40:58;7.30;99.90
20712;DHT22;10517;50.742;4.224;2023-01-09T03:43:24;7.40;99.90
20712;DHT22;10517;50.742;4.224;2023-01-09T03:45:49;7.40;99.90
20712;DHT22;10517;50.742;4.224;2023-01-09T03:48:15;7.40;99.90
20712;DHT22;10517;50.742;4.224;2023-01-09T03:50:40;7.50;99.90
20712;DHT22;10517;50.742;4.224;2023-01-09T03:53:12;7.60;99.90
20712;DHT22;10517;50.742;4.224;2023-01-09T03:55:39;7.60;99.90
20712;DHT22;10517;50.742;4.224;2023-01-09T03:58:04;7.70;99.90
20712;DHT22;10517;50.742;4.224;2023-01-09T04:00:30;7.70;99.90
20712;DHT22;10517;50.742;4.224;2023-01-09T04:02:55;7.70;99.90
20712;DHT22;10517;50.742;4.224;2023-01-09T04:05:21;7.60;99.90
20712;DHT22;10517;50.742;4.224;2023-01-09T04:07:46;7.60;99.90
20712;DHT22;10517;50.742;4.224;2023-01-09T04:10:12;7.60;99.90
20712;DHT22;10517;50.742;4.224;2023-01-09T04:12:38;7.60;99.90
20712;DHT22;10517;50.742;4.224;2023-01-09T04:15:04;7.60;99.90
20712;DHT22;10517;50.742;4.224;2023-01-09T04:17:29;7.60;99.90
20712;DHT22;10517;50.742;4.224;2023-01-09T04:19:55;7.60;99.90
20712;DHT22;10517;50.742;4.224;2023-01-09T04:22:20;7.60;99.90
20712;DHT22;10517;50.742;4.224;2023-01-09T04:24:46;7.60;99.90
20712;DHT22;10517;50.742;4.224;2023-01-09T04:27:11;7.70;99.90
20712;DHT22;10517;50.742;4.224;2023-01-09T04:29:37;7.70;99.90
20712;DHT22;10517;50.742;4.224;2023-01-09T04:32:03;7.70;99.90
20712;DHT22;10517;50.742;4.224;2023-01-09T04:34:29;7.70;99.90
20712;DHT22;10517;50.742;4.224;2023-01-09T04:36:54;7.70;99.90
20712;DHT22;10517;50.742;4.224;2023-01-09T04:39:20;7.70;99.90
20712;DHT22;10517;50.742;4.224;2023-01-09T04:41:46;7.70;99.90
20712;DHT22;10517;50.742;4.224;2023-01-09T04:44:19;7.50;99.90
20712;DHT22;10517;50.742;4.224;2023-01-09T04:46:46;7.70;99.90
20712;DHT22;10517;50.742;4.224;2023-01-09T04:49:13;7.70;99.90
20712;DHT22;10517;50.742;4.224;2023-01-09T04:51:38;7.80;99.90
20712;DHT22;10517;50.742;4.224;2023-01-09T04:54:04;7.80;99.90
20712;DHT22;10517;50.742;4.224;2023-01-09T04:56:30;7.80;99.90
20712;DHT22;10517;50.742;4.224;2023-01-09T04:58:55;7.80;99.90
20712;DHT22;10517;50.742;4.224;2023-01-09T05:01:21;7.80;99.90
20712;DHT22;10517;50.742;4.224;2023-01-09T05:03:47;7.80;99.90
20712;DHT22;10517;50.742;4.224;2023-01-09T05:06:13;7.80;99.90
20712;DHT22;10517;50.742;4.224;2023-01-09T05:08:38;7.80;99.90
20712;DHT22;10517;50.742;4.224;2023-01-09T05:11:04;7.90;99.90
20712;DHT22;10517;50.742;4.224;2023-01-09T05:13:29;7.90;99.90
20712;DHT22;10517;50.742;4.224;2023-01-09T05:15:55;7.90;99.90
20712;DHT22;10517;50.742;4.224;2023-01-09T05:18:20;7.90;99.90
20712;DHT22;10517;50.742;4.224;2023-01-09T05:20:46;7.90;99.90
20712;DHT22;10517;50.742;4.224;2023-01-09T05:23:12;7.90;99.90
20712;DHT22;10517;50.742;4.224;2023-01-09T05:25:37;7.80;99.90
20712;DHT22;10517;50.742;4.224;2023-01-09T05:28:03;7.70;99.90
20712;DHT22;10517;50.742;4.224;2023-01-09T05:30:28;7.70;99.90
20712;DHT22;10517;50.742;4.224;2023-01-09T05:32:54;7.70;99.90
20712;DHT22;10517;50.742;4.224;2023-01-09T05:35:19;7.70;99.90
20712;DHT22;10517;50.742;4.224;2023-01-09T05:37:46;7.60;99.90
20712;DHT22;10517;50.742;4.224;2023-01-09T05:40:12;7.70;99.90
20712;DHT22;10517;50.742;4.224;2023-01-09T05:42:38;7.70;99.90
20712;DHT22;10517;50.742;4.224;2023-01-09T05:45:04;7.70;99.90
20712;DHT22;10517;50.742;4.224;2023-01-09T05:47:30;7.80;99.90
20712;DHT22;10517;50.742;4.224;2023-01-09T05:49:56;7.80;99.90
20712;DHT22;10517;50.742;4.224;2023-01-09T05:52:23;7.90;99.90
20712;DHT22;10517;50.742;4.224;2023-01-09T05:54:48;7.90;99.90
20712;DHT22;10517;50.742;4.224;2023-01-09T05:57:14;8.00;99.90
20712;DHT22;10517;50.742;4.224;2023-01-09T05:59:40;8.00;99.90
20712;DHT22;10517;50.742;4.224;2023-01-09T06:02:05;8.00;99.90
20712;DHT22;10517;50.742;4.224;2023-01-09T06:04:31;8.00;99.90
20712;DHT22;10517;50.742;4.224;2023-01-09T06:06:56;8.00;99.90
20712;DHT22;10517;50.742;4.224;2023-01-09T06:09:22;8.00;99.90
20712;DHT22;10517;50.742;4.224;2023-01-09T06:11:47;8.00;99.90
20712;DHT22;10517;50.742;4.224;2023-01-09T06:14:13;8.00;99.90
20712;DHT22;10517;50.742;4.224;2023-01-09T06:16:39;8.00;99.90
20712;DHT22;10517;50.742;4.224;2023-01-09T06:19:04;8.00;99.90
20712;DHT22;10517;50.742;4.224;2023-01-09T06:21:31;8.00;99.90
20712;DHT22;10517;50.742;4.224;2023-01-09T06:23:57;8.00;99.90
20712;DHT22;10517;50.742;4.224;2023-01-09T06:26:24;7.90;99.90
20712;DHT22;10517;50.742;4.224;2023-01-09T06:28:50;8.00;99.90
20712;DHT22;10517;50.742;4.224;2023-01-09T06:31:16;8.00;99.90
20712;DHT22;10517;50.742;4.224;2023-01-09T06:33:41;8.00;99.90
20712;DHT22;10517;50.742;4.224;2023-01-09T06:36:07;8.00;99.90
20712;DHT22;10517;50.742;4.224;2023-01-09T06:38:32;8.00;99.90
20712;DHT22;10517;50.742;4.224;2023-01-09T06:40:58;8.00;99.90
20712;DHT22;10517;50.742;4.224;2023-01-09T06:43:24;8.10;99.90
20712;DHT22;10517;50.742;4.224;2023-01-09T06:45:49;8.10;99.90
20712;DHT22;10517;50.742;4.224;2023-01-09T06:48:15;8.10;99.90
20712;DHT22;10517;50.742;4.224;2023-01-09T06:50:40;8.10;99.90
20712;DHT22;10517;50.742;4.224;2023-01-09T06:53:06;8.10;99.90
20712;DHT22;10517;50.742;4.224;2023-01-09T06:55:32;8.10;99.90
20712;DHT22;10517;50.742;4.224;2023-01-09T06:57:57;8.20;99.90
20712;DHT22;10517;50.742;4.224;2023-01-09T07:00:23;8.20;99.90
20712;DHT22;10517;50.742;4.224;2023-01-09T07:02:49;8.10;99.90
20712;DHT22;10517;50.742;4.224;2023-01-09T07:05:15;8.10;99.90
20712;DHT22;10517;50.742;4.224;2023-01-09T07:07:41;8.00;99.90
20712;DHT22;10517;50.742;4.224;2023-01-09T07:10:07;8.10;99.90
20712;DHT22;10517;50.742;4.224;2023-01-09T07:12:33;8.00;99.90
20712;DHT22;10517;50.742;4.224;2023-01-09T07:15:00;8.00;99.90
20712;DHT22;10517;50.742;4.224;2023-01-09T07:17:25;8.00;99.90
20712;DHT22;10517;50.742;4.224;2023-01-09T07:19:51;7.90;99.90
20712;DHT22;10517;50.742;4.224;2023-01-09T07:22:17;7.90;99.90
20712;DHT22;10517;50.742;4.224;2023-01-09T07:24:43;7.90;99.90
20712;DHT22;10517;50.742;4.224;2023-01-09T07:27:09;8.00;99.90
20712;DHT22;10517;50.742;4.224;2023-01-09T07:29:35;7.90;99.90
20712;DHT22;10517;50.742;4.224;2023-01-09T07:32:01;8.00;99.90
20712;DHT22;10517;50.742;4.224;2023-01-09T07:34:27;8.00;99.90
20712;DHT22;10517;50.742;4.224;2023-01-09T07:36:52;8.00;99.90
20712;DHT22;10517;50.742;4.224;2023-01-09T07:39:18;8.00;99.90
20712;DHT22;10517;50.742;4.224;2023-01-09T07:41:44;8.10;99.90
20712;DHT22;10517;50.742;4.224;2023-01-09T07:44:10;8.00;99.90
20712;DHT22;10517;50.742;4.224;2023-01-09T07:46:35;8.00;99.90
20712;DHT22;10517;50.742;4.224;2023-01-09T07:49:01;8.00;99.90
20712;DHT22;10517;50.742;4.224;2023-01-09T07:51:27;8.00;99.90
20712;DHT22;10517;50.742;4.224;2023-01-09T07:53:52;7.90;99.90
20712;DHT22;10517;50.742;4.224;2023-01-09T07:56:18;8.00;99.90
20712;DHT22;10517;50.742;4.224;2023-01-09T07:58:44;8.00;99.90
20712;DHT22;10517;50.742;4.224;2023-01-09T08:01:09;8.00;99.90
20712;DHT22;10517;50.742;4.224;2023-01-09T08:03:35;7.90;99.90
20712;DHT22;10517;50.742;4.224;2023-01-09T08:06:01;8.00;99.90
20712;DHT22;10517;50.742;4.224;2023-01-09T08:08:26;8.00;99.90
20712;DHT22;10517;50.742;4.224;2023-01-09T08:10:52;7.90;99.90
20712;DHT22;10517;50.742;4.224;2023-01-09T08:13:17;8.00;99.90
20712;DHT22;10517;50.742;4.224;2023-01-09T08:15:43;8.10;99.90
20712;DHT22;10517;50.742;4.224;2023-01-09T08:18:08;8.10;99.90
20712;DHT22;10517;50.742;4.224;2023-01-09T08:20:34;8.00;99.90
20712;DHT22;10517;50.742;4.224;2023-01-09T08:23:00;8.00;99.90
20712;DHT22;10517;50.742;4.224;2023-01-09T08:25:25;8.00;99.90
20712;DHT22;10517;50.742;4.224;2023-01-09T08:27:51;8.10;99.90
20712;DHT22;10517;50.742;4.224;2023-01-09T08:30:17;8.10;99.90
20712;DHT22;10517;50.742;4.224;2023-01-09T08:32:48;8.10;99.90
20712;DHT22;10517;50.742;4.224;2023-01-09T08:35:14;8.10;99.90
20712;DHT22;10517;50.742;4.224;2023-01-09T08:37:43;8.10;99.90
20712;DHT22;10517;50.742;4.224;2023-01-09T08:40:10;8.10;99.90
20712;DHT22;10517;50.742;4.224;2023-01-09T08:42:36;8.10;99.90
20712;DHT22;10517;50.742;4.224;2023-01-09T08:45:20;8.10;99.90
20712;DHT22;10517;50.742;4.224;2023-01-09T08:48:06;8.00;99.90
20712;DHT22;10517;50.742;4.224;2023-01-09T08:50:32;8.00;99.90
20712;DHT22;10517;50.742;4.224;2023-01-09T08:52:57;8.10;99.90
20712;DHT22;10517;50.742;4.224;2023-01-09T08:55:23;8.20;99.90
20712;DHT22;10517;50.742;4.224;2023-01-09T08:57:50;8.10;99.90
20712;DHT22;10517;50.742;4.224;2023-01-09T09:00:17;8.00;99.90
20712;DHT22;10517;50.742;4.224;2023-01-09T09:02:43;8.00;99.90
20712;DHT22;10517;50.742;4.224;2023-01-09T09:05:09;7.90;99.90
20712;DHT22;10517;50.742;4.224;2023-01-09T09:07:34;7.90;99.90
20712;DHT22;10517;50.742;4.224;2023-01-09T09:10:00;7.90;99.90
20712;DHT22;10517;50.742;4.224;2023-01-09T09:12:26;7.80;99.90
20712;DHT22;10517;50.742;4.224;2023-01-09T09:14:52;7.80;99.90
20712;DHT22;10517;50.742;4.224;2023-01-09T09:17:36;7.80;99.90
20712;DHT22;10517;50.742;4.224;2023-01-09T09:20:01;7.90;99.90
20712;DHT22;10517;50.742;4.224;2023-01-09T09:22:27;7.80;99.90
20712;DHT22;10517;50.742;4.224;2023-01-09T09:24:52;7.80;99.90
20712;DHT22;10517;50.742;4.224;2023-01-09T09:27:18;7.80;99.90
20712;DHT22;10517;50.742;4.224;2023-01-09T09:29:44;7.80;99.90
20712;DHT22;10517;50.742;4.224;2023-01-09T09:32:10;7.90;99.90
20712;DHT22;10517;50.742;4.224;2023-01-09T09:34:35;7.90;99.90
20712;DHT22;10517;50.742;4.224;2023-01-09T09:37:01;7.90;99.90
20712;DHT22;10517;50.742;4.224;2023-01-09T09:39:26;7.80;99.90
20712;DHT22;10517;50.742;4.224;2023-01-09T09:44:55;8.00;99.90
20712;DHT22;10517;50.742;4.224;2023-01-09T09:47:38;8.00;99.90
20712;DHT22;10517;50.742;4.224;2023-01-09T09:53:02;7.90;99.90
20712;DHT22;10517;50.742;4.224;2023-01-09T09:55:32;7.90;99.90
20712;DHT22;10517;50.742;4.224;2023-01-09T09:58:10;7.90;99.90
20712;DHT22;10517;50.742;4.224;2023-01-09T10:00:37;8.00;99.90
20712;DHT22;10517;50.742;4.224;2023-01-09T10:03:06;7.90;99.90
20712;DHT22;10517;50.742;4.224;2023-01-09T10:05:42;8.00;99.90
20712;DHT22;10517;50.742;4.224;2023-01-09T10:11:48;8.20;99.90
20712;DHT22;10517;50.742;4.224;2023-01-09T10:14:15;8.20;99.90
20712;DHT22;10517;50.742;4.224;2023-01-09T10:38:31;8.70;99.90
20712;DHT22;10517;50.742;4.224;2023-01-09T10:41:05;8.80;99.90
20712;DHT22;10517;50.742;4.224;2023-01-09T10:43:49;8.70;99.90
20712;DHT22;10517;50.742;4.224;2023-01-09T10:46:30;8.60;99.90
20712;DHT22;10517;50.742;4.224;2023-01-09T10:49:00;8.60;99.90
20712;DHT22;10517;50.742;4.224;2023-01-09T10:51:46;8.60;99.90
20712;DHT22;10517;50.742;4.224;2023-01-09T10:54:15;8.60;99.90
20712;DHT22;10517;50.742;4.224;2023-01-09T10:56:47;8.50;99.90
20712;DHT22;10517;50.742;4.224;2023-01-09T10:59:14;8.50;99.90
20712;DHT22;10517;50.742;4.224;2023-01-09T11:01:40;8.50;99.90
20712;DHT22;10517;50.742;4.224;2023-01-09T11:04:26;8.60;99.90
20712;DHT22;10517;50.742;4.224;2023-01-09T11:07:14;8.80;99.90
20712;DHT22;10517;50.742;4.224;2023-01-09T11:09:59;8.70;99.90
20712;DHT22;10517;50.742;4.224;2023-01-09T11:12:30;8.70;99.90
20712;DHT22;10517;50.742;4.224;2023-01-09T11:17:46;8.70;99.90
20712;DHT22;10517;50.742;4.224;2023-01-09T11:20:16;8.70;99.90
20712;DHT22;10517;50.742;4.224;2023-01-09T11:22:47;8.70;99.90
20712;DHT22;10517;50.742;4.224;2023-01-09T11:25:16;8.70;99.90
20712;DHT22;10517;50.742;4.224;2023-01-09T11:27:42;8.80;99.90
20712;DHT22;10517;50.742;4.224;2023-01-09T11:30:15;8.80;99.90
20712;DHT22;10517;50.742;4.224;2023-01-09T11:32:42;8.80;99.90
20712;DHT22;10517;50.742;4.224;2023-01-09T11:40:27;8.80;99.90
20712;DHT22;10517;50.742;4.224;2023-01-09T11:43:03;8.90;99.90
20712;DHT22;10517;50.742;4.224;2023-01-09T11:45:32;9.00;99.90
20712;DHT22;10517;50.742;4.224;2023-01-09T11:47:59;9.10;99.90
20712;DHT22;10517;50.742;4.224;2023-01-09T11:50:27;9.20;99.90
20712;DHT22;10517;50.742;4.224;2023-01-09T11:53:18;9.10;99.90
20712;DHT22;10517;50.742;4.224;2023-01-09T11:55:45;9.00;99.90
20712;DHT22;10517;50.742;4.224;2023-01-09T11:58:16;9.00;99.90
20712;DHT22;10517;50.742;4.224;2023-01-09T12:06:26;8.90;99.90
20712;DHT22;10517;50.742;4.224;2023-01-09T12:20:31;9.40;99.90
20712;DHT22;10517;50.742;4.224;2023-01-09T12:25:52;9.60;99.90
20712;DHT22;10517;50.742;4.224;2023-01-09T12:28:43;9.70;99.90
20712;DHT22;10517;50.742;4.224;2023-01-09T12:31:21;9.80;99.90
20712;DHT22;10517;50.742;4.224;2023-01-09T12:42:34;10.00;99.90
20712;DHT22;10517;50.742;4.224;2023-01-09T12:47:50;10.30;99.90
20712;DHT22;10517;50.742;4.224;2023-01-09T12:53:59;10.10;99.90
20712;DHT22;10517;50.742;4.224;2023-01-09T12:56:07;10.20;99.90
20712;DHT22;10517;50.742;4.224;2023-01-09T13:01:16;10.10;99.90
20712;DHT22;10517;50.742;4.224;2023-01-09T13:06:14;10.10;99.90
20712;DHT22;10517;50.742;4.224;2023-01-09T13:09:04;9.80;99.90
20712;DHT22;10517;50.742;4.224;2023-01-09T13:11:39;9.80;99.90
20712;DHT22;10517;50.742;4.224;2023-01-09T13:14:20;9.70;99.90
20712;DHT22;10517;50.742;4.224;2023-01-09T13:16:52;9.70;99.90
20712;DHT22;10517;50.742;4.224;2023-01-09T13:19:28;9.80;99.90
20712;DHT22;10517;50.742;4.224;2023-01-09T13:21:56;9.90;99.90
20712;DHT22;10517;50.742;4.224;2023-01-09T13:27:31;10.20;99.90
20712;DHT22;10517;50.742;4.224;2023-01-09T13:30:05;10.40;99.90
20712;DHT22;10517;50.742;4.224;2023-01-09T13:35:16;10.60;99.90
20712;DHT22;10517;50.742;4.224;2023-01-09T13:37:42;10.60;99.90
20712;DHT22;10517;50.742;4.224;2023-01-09T13:42:55;10.50;99.90
20712;DHT22;10517;50.742;4.224;2023-01-09T13:45:25;10.30;99.90
20712;DHT22;10517;50.742;4.224;2023-01-09T13:50:45;10.00;99.90
20712;DHT22;10517;50.742;4.224;2023-01-09T13:58:28;10.00;99.90
20712;DHT22;10517;50.742;4.224;2023-01-09T14:00:59;9.90;99.90
20712;DHT22;10517;50.742;4.224;2023-01-09T14:03:36;10.00;99.90
20712;DHT22;10517;50.742;4.224;2023-01-09T14:06:10;9.80;99.90
20712;DHT22;10517;50.742;4.224;2023-01-09T14:08:36;9.70;99.90
20712;DHT22;10517;50.742;4.224;2023-01-09T14:11:03;9.60;99.90
20712;DHT22;10517;50.742;4.224;2023-01-09T14:13:32;9.60;99.90
20712;DHT22;10517;50.742;4.224;2023-01-09T14:16:18;9.60;99.90
20712;DHT22;10517;50.742;4.224;2023-01-09T14:19:22;9.60;99.90
20712;DHT22;10517;50.742;4.224;2023-01-09T14:21:55;9.50;99.90
20712;DHT22;10517;50.742;4.224;2023-01-09T14:24:27;9.50;99.90
20712;DHT22;10517;50.742;4.224;2023-01-09T14:26:57;9.40;99.90
20712;DHT22;10517;50.742;4.224;2023-01-09T14:29:37;9.40;99.90
20712;DHT22;10517;50.742;4.224;2023-01-09T14:35:01;9.40;99.90
20712;DHT22;10517;50.742;4.224;2023-01-09T14:37:32;9.40;99.90
20712;DHT22;10517;50.742;4.224;2023-01-09T14:39:58;9.30;99.90
20712;DHT22;10517;50.742;4.224;2023-01-09T14:42:27;9.20;99.90
20712;DHT22;10517;50.742;4.224;2023-01-09T14:47:36;9.10;99.90
20712;DHT22;10517;50.742;4.224;2023-01-09T14:55:25;9.10;99.90
20712;DHT22;10517;50.742;4.224;2023-01-09T14:57:51;9.00;99.90
20712;DHT22;10517;50.742;4.224;2023-01-09T15:00:20;8.90;99.90
20712;DHT22;10517;50.742;4.224;2023-01-09T15:02:47;8.90;99.90
20712;DHT22;10517;50.742;4.224;2023-01-09T15:05:21;8.90;99.90
20712;DHT22;10517;50.742;4.224;2023-01-09T15:07:51;9.00;99.90
20712;DHT22;10517;50.742;4.224;2023-01-09T15:10:21;8.90;99.90
20712;DHT22;10517;50.742;4.224;2023-01-09T15:12:50;8.80;99.90
20712;DHT22;10517;50.742;4.224;2023-01-09T15:15:17;8.70;99.90
20712;DHT22;10517;50.742;4.224;2023-01-09T15:17:47;8.70;99.90
20712;DHT22;10517;50.742;4.224;2023-01-09T15:20:19;8.60;99.90
20712;DHT22;10517;50.742;4.224;2023-01-09T15:22:49;8.70;99.90
20712;DHT22;10517;50.742;4.224;2023-01-09T15:27:57;8.80;99.90
20712;DHT22;10517;50.742;4.224;2023-01-09T15:30:31;8.70;99.90
20712;DHT22;10517;50.742;4.224;2023-01-09T15:33:12;8.70;99.90
20712;DHT22;10517;50.742;4.224;2023-01-09T15:35:46;8.70;99.90
20712;DHT22;10517;50.742;4.224;2023-01-09T15:38:17;8.70;99.90
20712;DHT22;10517;50.742;4.224;2023-01-09T15:41:05;8.80;99.90
20712;DHT22;10517;50.742;4.224;2023-01-09T15:43:33;8.80;99.90
20712;DHT22;10517;50.742;4.224;2023-01-09T15:46:01;8.90;99.90
20712;DHT22;10517;50.742;4.224;2023-01-09T15:51:06;8.70;99.90
20712;DHT22;10517;50.742;4.224;2023-01-09T15:53:35;8.50;99.90
20712;DHT22;10517;50.742;4.224;2023-01-09T15:56:13;8.40;99.90
20712;DHT22;10517;50.742;4.224;2023-01-09T15:58:42;8.20;99.90
20712;DHT22;10517;50.742;4.224;2023-01-09T16:01:34;8.20;99.90
20712;DHT22;10517;50.742;4.224;2023-01-09T16:04:14;8.10;99.90
20712;DHT22;10517;50.742;4.224;2023-01-09T16:06:45;8.20;99.90
20712;DHT22;10517;50.742;4.224;2023-01-09T16:09:25;8.20;99.90
20712;DHT22;10517;50.742;4.224;2023-01-09T16:11:53;8.20;99.90
20712;DHT22;10517;50.742;4.224;2023-01-09T16:14:28;8.20;99.90
20712;DHT22;10517;50.742;4.224;2023-01-09T16:17:02;8.10;99.90
20712;DHT22;10517;50.742;4.224;2023-01-09T16:22:01;8.00;99.90
20712;DHT22;10517;50.742;4.224;2023-01-09T16:24:40;7.90;99.90
20712;DHT22;10517;50.742;4.224;2023-01-09T16:30:26;7.80;99.90
20712;DHT22;10517;50.742;4.224;2023-01-09T16:32:52;7.70;99.90
20712;DHT22;10517;50.742;4.224;2023-01-09T16:35:27;7.70;99.90
20712;DHT22;10517;50.742;4.224;2023-01-09T16:37:52;7.50;99.90
20712;DHT22;10517;50.742;4.224;2023-01-09T16:42:53;7.60;99.90
20712;DHT22;10517;50.742;4.224;2023-01-09T16:45:37;7.60;99.90
20712;DHT22;10517;50.742;4.224;2023-01-09T16:48:16;7.60;99.90
20712;DHT22;10517;50.742;4.224;2023-01-09T16:50:44;7.50;99.90
20712;DHT22;10517;50.742;4.224;2023-01-09T16:53:19;7.50;99.90
20712;DHT22;10517;50.742;4.224;2023-01-09T16:55:47;7.50;99.90
20712;DHT22;10517;50.742;4.224;2023-01-09T16:58:30;7.60;99.90
20712;DHT22;10517;50.742;4.224;2023-01-09T17:00:57;7.60;99.90
20712;DHT22;10517;50.742;4.224;2023-01-09T17:03:23;7.70;99.90
20712;DHT22;10517;50.742;4.224;2023-01-09T17:05:54;7.60;99.90
20712;DHT22;10517;50.742;4.224;2023-01-09T17:08:21;7.40;99.90
20712;DHT22;10517;50.742;4.224;2023-01-09T17:10:48;7.40;99.90
20712;DHT22;10517;50.742;4.224;2023-01-09T17:13:14;7.50;99.90
20712;DHT22;10517;50.742;4.224;2023-01-09T17:15:39;7.60;99.90
20712;DHT22;10517;50.742;4.224;2023-01-09T17:18:16;7.50;99.90
20712;DHT22;10517;50.742;4.224;2023-01-09T17:20:44;7.40;99.90
20712;DHT22;10517;50.742;4.224;2023-01-09T17:23:10;7.40;99.90
20712;DHT22;10517;50.742;4.224;2023-01-09T17:25:36;7.30;99.90
20712;DHT22;10517;50.742;4.224;2023-01-09T17:28:20;7.20;99.90
20712;DHT22;10517;50.742;4.224;2023-01-09T17:33:27;7.10;99.90
20712;DHT22;10517;50.742;4.224;2023-01-09T17:35:53;7.00;99.90
20712;DHT22;10517;50.742;4.224;2023-01-09T17:38:19;7.00;99.90
20712;DHT22;10517;50.742;4.224;2023-01-09T17:40:45;6.90;99.90
20712;DHT22;10517;50.742;4.224;2023-01-09T17:43:11;6.90;99.90
20712;DHT22;10517;50.742;4.224;2023-01-09T17:45:37;6.90;99.90
20712;DHT22;10517;50.742;4.224;2023-01-09T17:48:15;6.80;99.90
20712;DHT22;10517;50.742;4.224;2023-01-09T17:50:42;6.40;99.90
20712;DHT22;10517;50.742;4.224;2023-01-09T17:53:07;6.10;99.90
20712;DHT22;10517;50.742;4.224;2023-01-09T17:55:33;6.00;99.90
20712;DHT22;10517;50.742;4.224;2023-01-09T17:57:59;6.00;99.90
20712;DHT22;10517;50.742;4.224;2023-01-09T18:00:30;6.10;99.90
20712;DHT22;10517;50.742;4.224;2023-01-09T18:02:57;6.10;99.90
20712;DHT22;10517;50.742;4.224;2023-01-09T18:05:24;6.10;99.90
20712;DHT22;10517;50.742;4.224;2023-01-09T18:07:50;6.20;99.90
20712;DHT22;10517;50.742;4.224;2023-01-09T18:10:21;6.00;99.90
20712;DHT22;10517;50.742;4.224;2023-01-09T18:12:48;6.00;99.90
20712;DHT22;10517;50.742;4.224;2023-01-09T18:15:15;5.90;99.90
20712;DHT22;10517;50.742;4.224;2023-01-09T18:17:41;5.80;99.90
20712;DHT22;10517;50.742;4.224;2023-01-09T18:20:07;5.90;99.90
20712;DHT22;10517;50.742;4.224;2023-01-09T18:22:33;5.90;99.90
20712;DHT22;10517;50.742;4.224;2023-01-09T18:24:59;6.00;99.90
20712;DHT22;10517;50.742;4.224;2023-01-09T18:27:25;6.20;99.90
20712;DHT22;10517;50.742;4.224;2023-01-09T18:29:51;6.30;99.90
20712;DHT22;10517;50.742;4.224;2023-01-09T18:32:16;6.30;99.90